• Join FlightAware (Why Join?)
  • Login
  • US Flag 
05:04PM EST


 

Airport Tracker/Info


-or-


 

Live Flight TrackerFlight Track Log ✈ QLK117D ✈ 06-Sep-2013 ✈ YCFS - YSSY / SYD

Flight Track Log - Related Links

Times and Time Zones

All times are in EDT time to prevent confusion due to time zone crossing. See the QLK117D flight status page for this flight to view local times or setup timezone preferences in your user account.

Time Position Orientation Groundspeed Altitude Reporting Facility
EDT Latitude Longitude Course Direction KTS MPH feet Rate Location/Type
03:23AM -30.3206 153.1163 120° Southeast 22,000  Level Aus ATC (Calculated)
03:24AM -30.3596 153.0791 77° East 22,000 -10,740 Level Aus ATC (Calculated)
03:24AM -30.3428 153.1602 237° Southwest 152 175 3,800 -13,500 Descending Aus ATC (RADAR)
03:25AM -30.3610 153.1282 237° Southwest 219 252 4,300 1,380 Climbing Aus ATC (RADAR)
03:25AM -30.3740 153.0843 251° West 239 275 5,300 1,920 Climbing Aus ATC (RADAR)
03:26AM -30.4241 153.0368 219° Southwest 251 289 7,200 1,980 Climbing Aus ATC (RADAR)
03:27AM -30.4487 153.0177 214° Southwest 254 292 8,000 1,680 Climbing Aus ATC (RADAR)
03:27AM -30.4835 152.9895 215° Southwest 260 299 8,900 1,620 Climbing Aus ATC (RADAR)
03:28AM -30.5349 152.9469 216° Southwest 273 314 10,300 1,740 Climbing Aus ATC (RADAR)
03:29AM -30.5716 152.9172 215° Southwest 276 318 11,400 1,560 Climbing Aus ATC (RADAR)
03:29AM -30.6189 152.8785 215° Southwest 280 322 12,400 1,260 Climbing Aus ATC (RADAR)
03:30AM -30.6461 152.8559 216° Southwest 286 329 12,900 1,260 Climbing Aus ATC (RADAR)
03:30AM -30.6843 152.8244 215° Southwest 290 334 13,700 1,200 Climbing Aus ATC (RADAR)
03:31AM -30.7409 152.7785 215° Southwest 295 339 14,600 1,080 Climbing Aus ATC (RADAR)
03:32AM -30.7751 152.7507 215° Southwest 298 343 15,200 960 Climbing Aus ATC (RADAR)
03:32AM -30.8153 152.7180 215° Southwest 303 349 15,700 1,020 Climbing Aus ATC (RADAR)
03:33AM -30.8668 152.6754 215° Southwest 302 348 16,600 1,080 Climbing Aus ATC (RADAR)
03:34AM -30.9069 152.6423 215° Southwest 304 350 17,200 900 Climbing Aus ATC (RADAR)
03:34AM -30.9465 152.6095 215° Southwest 299 344 17,700 960 Climbing Aus ATC (RADAR)
03:35AM -30.9932 152.5708 215° Southwest 310 357 18,400 960 Climbing Aus ATC (RADAR)
03:36AM -31.0337 152.5373 215° Southwest 308 354 18,900 900 Climbing Aus ATC (RADAR)
03:36AM -31.0968 152.4856 215° Southwest 301 346 19,800 960 Climbing Aus ATC (RADAR)
03:37AM -31.1253 152.4619 215° Southwest 302 348 20,200 480 Climbing Aus ATC (RADAR)
03:37AM -31.1658 152.4284 215° Southwest 306 352 20,300 60 Climbing Aus ATC (RADAR)
03:38AM -31.2274 152.3769 216° Southwest 328 377 20,300  Level Aus ATC (RADAR)
03:39AM -31.2717 152.3400 215° Southwest 336 387 20,300  Level Aus ATC (RADAR)
03:40AM -31.3362 152.2864 215° Southwest 343 395 20,300  Level Aus ATC (RADAR)
03:40AM -31.3621 152.2646 216° Southwest 345 397 20,300  Level Aus ATC (RADAR)
03:41AM -31.4078 152.2265 215° Southwest 347 399 20,300  Level Aus ATC (RADAR)
03:42AM -31.4797 152.1667 215° Southwest 347 399 20,300  Level Aus ATC (RADAR)
03:42AM -31.4993 152.1502 216° Southwest 348 400 20,300  Level Aus ATC (RADAR)
03:42AM -31.5454 152.1116 216° Southwest 350 403 20,300  Level Aus ATC (RADAR)
03:43AM -31.6045 152.0625 215° Southwest 349 402 20,300  Level Aus ATC (RADAR)
03:44AM -31.6369 152.0351 216° Southwest 347 399 20,300  Level Aus ATC (RADAR)
03:44AM -31.6825 151.9967 216° Southwest 346 398 20,300 60 Level Aus ATC (RADAR)
03:45AM -31.7306 151.9564 215° Southwest 340 391 20,400 60 Climbing Aus ATC (RADAR)
03:45AM -31.7758 151.9176 216° Southwest 342 394 20,400 -120 Level Aus ATC (RADAR)
03:46AM -31.8452 151.8603 215° Southwest 345 397 20,300 -120 Descending Aus ATC (RADAR)
03:47AM -31.8771 151.8327 216° Southwest 343 395 20,300  Level Aus ATC (RADAR)
03:47AM -31.9120 151.8034 215° Southwest 337 388 20,300  Level Aus ATC (RADAR)
03:48AM -31.9935 151.7342 216° Southwest 344 396 20,300  Level Aus ATC (RADAR)
03:49AM -32.0413 151.6941 215° Southwest 338 389 20,300  Level Aus ATC (RADAR)
03:50AM -32.1096 151.6359 216° Southwest 343 395 20,300  Level Aus ATC (RADAR)
03:50AM -32.1548 151.5975 216° Southwest 345 397 20,300  Level Aus ATC (RADAR)
03:51AM -32.2192 151.5426 216° Southwest 344 396 20,300  Level Aus ATC (RADAR)
03:51AM -32.2515 151.5152 216° Southwest 345 397 20,300  Level Aus ATC (RADAR)
03:52AM -32.3055 151.4688 216° Southwest 340 391 20,300  Level Aus ATC (RADAR)
03:53AM -32.3509 151.4307 215° Southwest 338 389 20,300  Level Aus ATC (RADAR)
03:53AM -32.3965 151.3919 216° Southwest 340 391 20,300  Level Aus ATC (RADAR)
03:54AM -32.4583 151.3383 216° Southwest 345 397 20,300  Level Aus ATC (RADAR)
03:55AM -32.4904 151.3110 216° Southwest 342 394 20,300  Level Aus ATC (RADAR)
03:55AM -32.5352 151.2720 216° Southwest 343 395 20,300  Level Aus ATC (RADAR)
03:56AM -32.6167 151.2512 192° South 347 399 20,300  Level Aus ATC (RADAR)
03:57AM -32.6751 151.2507 180° South 357 411 20,300  Level Aus ATC (RADAR)
03:57AM -32.7543 151.2477 182° South 351 404 20,300  Level Aus ATC (RADAR)
03:58AM -32.8037 151.2449 183° South 352 405 20,300  Level Aus ATC (RADAR)
03:59AM -32.8729 151.2406 183° South 355 409 20,300 -360 Level Aus ATC (RADAR)
03:59AM -32.9436 151.2353 184° South 350 403 19,800 -1,260 Descending Aus ATC (RADAR)
04:00AM -33.0005 151.2321 183° South 344 396 18,700 -1,800 Descending Aus ATC (RADAR)
04:01AM -33.0836 151.2290 182° South 344 396 17,200 -1,800 Descending Aus ATC (RADAR)
04:01AM -33.1074 151.2278 182° South 343 395 16,700 -1,860 Descending Aus ATC (RADAR)
04:02AM -33.1665 151.2243 183° South 332 382 15,600 -1,800 Descending Aus ATC (RADAR)
04:03AM -33.2794 151.2178 183° South 339 390 13,500 -1,740 Descending Aus ATC (RADAR)
04:03AM -33.3061 151.2160 183° South 327 376 13,000 -1,800 Descending Aus ATC (RADAR)
04:04AM -33.3641 151.2133 182° South 336 387 11,900 -1,800 Descending Aus ATC (RADAR)
04:04AM -33.4160 151.2095 184° South 323 372 10,900 -1,860 Descending Aus ATC (RADAR)
04:05AM -33.4683 151.2074 182° South 292 336 9,700 -1,740 Descending Aus ATC (RADAR)
04:06AM -33.5393 151.2040 182° South 267 307 8,300 -1,500 Descending Aus ATC (RADAR)
04:06AM -33.5575 151.2028 183° South 260 299 8,000 -1,320 Descending Aus ATC (RADAR)
04:07AM -33.5996 151.2005 183° South 254 292 7,200 -1,020 Descending Aus ATC (RADAR)
04:08AM -33.6650 151.1974 182° South 253 291 6,500 -780 Descending Aus ATC (RADAR)
04:08AM -33.6949 151.1950 184° South 253 291 6,200 -480 Descending Aus ATC (RADAR)
04:09AM -33.7395 151.1928 182° South 260 299 6,000 -180 Descending Aus ATC (RADAR)
04:09AM -33.7898 151.2138 161° South 255 293 6,000  Level Aus ATC (RADAR)
04:10AM -33.8287 151.2309 160° South 255 293 6,000  Level Aus ATC (RADAR)
04:11AM -33.8791 151.2526 160° South 256 295 6,000  Level Aus ATC (RADAR)
04:11AM -33.9106 151.2657 161° South 253 291 6,000  Level Aus ATC (RADAR)
04:12AM -33.9502 151.2820 161° South 253 291 6,000  Level Aus ATC (RADAR)
04:13AM -34.0069 151.3053 161° South 252 290 6,000  Level Aus ATC (RADAR)
04:13AM -34.0351 151.3171 161° South 252 290 6,000 -420 Level Aus ATC (RADAR)
04:14AM -34.0752 151.3332 162° South 253 291 5,600 -780 Descending Aus ATC (RADAR)
04:14AM -34.1272 151.3547 161° South 256 295 5,000 -840 Descending Aus ATC (RADAR)
04:15AM -34.1672 151.3489 187° South 254 292 4,500 -780 Descending Aus ATC (RADAR)
04:16AM -34.1825 151.2927 252° West 222 255 4,000 -540 Descending Aus ATC (RADAR)
04:16AM -34.1657 151.2720 314° West 210 242 3,900 -720 Descending Aus ATC (RADAR)
04:17AM -34.1379 151.2487 325° Northwest 209 241 3,300 -1,080 Descending Aus ATC (RADAR)
04:18AM -34.0862 151.2236 338° Northwest 187 215 2,200 -1,020 Descending Aus ATC (RADAR)
04:18AM -34.0674 151.2188 348° North 165 190 1,900 -720 Descending Aus ATC (RADAR)
04:19AM -34.0433 151.2126 348° North 152 175 1,500 -780 Descending Aus ATC (RADAR)
04:19AM -34.0131 151.2050 348° North 140 161 900 -780 Descending Aus ATC (RADAR)
04:20AM -33.9923 151.1995 348° North 129 148 500 -720 Descending Aus ATC (RADAR)